createdAt,value
2022-11-28T00:03:42.011Z,-23.9
2022-11-28T00:09:01.391Z,-26
2022-11-28T00:14:21.114Z,-23.3
2022-11-28T00:19:40.878Z,-23.3
2022-11-28T00:30:18.934Z,-23.5
2022-11-28T00:40:57.107Z,-23.3
2022-11-28T00:46:17.556Z,-23.5
2022-11-28T00:56:55.997Z,-24
2022-11-28T01:02:15.396Z,-23.4
2022-11-28T01:12:53.605Z,-23.7
2022-11-28T01:23:31.454Z,-23.7
2022-11-28T01:28:50.386Z,-23.3
2022-11-28T01:34:09.895Z,-27.3
2022-11-28T01:39:29.564Z,-23.5
2022-11-28T01:44:49.322Z,-23.7
2022-11-28T01:55:27.422Z,-23.9
2022-11-28T02:00:46.528Z,-23.8
2022-11-28T02:06:06.074Z,-23.7
2022-11-28T02:11:25.061Z,-23.7
2022-11-28T02:16:44.400Z,-23.9
2022-11-28T02:22:03.424Z,-23.7
2022-11-28T02:27:22.467Z,-23.7
2022-11-28T02:38:01.411Z,-23.4
2022-11-28T02:43:20.744Z,-23.8
2022-11-28T02:48:39.729Z,-23.7
2022-11-28T02:53:58.520Z,-23.7
2022-11-28T03:04:37.709Z,-23.9
2022-11-28T03:09:56.975Z,-23.6
2022-11-28T03:20:35.459Z,-23.8
2022-11-28T03:25:54.944Z,-24.3
2022-11-28T03:31:14.195Z,-23.8
2022-11-28T03:36:33.920Z,-23.7
2022-11-28T03:41:53.228Z,-23.7
2022-11-28T03:47:12.463Z,-23.6
2022-11-28T03:52:31.588Z,-23.8
2022-11-28T04:03:10.974Z,-23.8
2022-11-28T04:08:30.534Z,-23
2022-11-28T04:19:09.188Z,-23.5
2022-11-28T04:24:28.405Z,-26.1
2022-11-28T04:29:47.331Z,-23.5
2022-11-28T04:35:06.757Z,-23.4
2022-11-28T04:45:45.367Z,-23.3
2022-11-28T04:51:04.252Z,-25
2022-11-28T04:56:23.079Z,-23.7
2022-11-28T05:01:42.261Z,-23.7
2022-11-28T05:07:01.465Z,-23.6
2022-11-28T05:12:21.100Z,-23.7
2022-11-28T05:17:42.325Z,-24
2022-11-28T05:28:18.256Z,-23.6
2022-11-28T05:33:38.051Z,-23.4
2022-11-28T05:38:56.843Z,-23.4
2022-11-28T05:44:15.039Z,-23.8
2022-11-28T05:49:34.192Z,-23.7
2022-11-28T05:54:53.741Z,-23.4
2022-11-28T06:00:13.407Z,-23.6
2022-11-28T06:10:51.744Z,-23.4
2022-11-28T06:16:11.578Z,-23.7
2022-11-28T06:26:49.584Z,-23.2
2022-11-28T06:38:02.779Z,-23.8
2022-11-28T06:43:22.476Z,-22.9
2022-11-28T06:54:01.272Z,-23.8
2022-11-28T06:59:20.300Z,-23.7
2022-11-28T07:04:39.212Z,-28.2
2022-11-28T07:09:58.252Z,-24.4
2022-11-28T07:15:18.069Z,-24.3
2022-11-28T07:20:36.808Z,-24.5
2022-11-28T07:25:56.219Z,-22.8
2022-11-28T07:31:23.604Z,-21.3
2022-11-28T07:36:34.887Z,-19.29
2022-11-28T07:41:54.505Z,-17.7
2022-11-28T07:52:32.375Z,-15.5
2022-11-28T08:03:11.158Z,-13
2022-11-28T08:08:30.768Z,-10.1
2022-11-28T08:19:09.072Z,-3.3
2022-11-28T08:24:27.911Z,-1.7
2022-11-28T08:29:51.794Z,-1.7
2022-11-28T08:35:06.616Z,4.1
2022-11-28T08:40:25.549Z,7
2022-11-28T08:45:45.329Z,10
2022-11-28T08:51:04.470Z,13.9
2022-11-28T09:01:42.946Z,15
2022-11-28T09:07:03.266Z,18.5
2022-11-28T09:17:40.942Z,19.79
2022-11-28T09:23:00.519Z,22.6
2022-11-28T09:28:20.143Z,24.9
2022-11-28T09:33:38.926Z,25.8
2022-11-28T09:44:17.536Z,27.7
2022-11-28T09:49:40.547Z,28.6
2022-11-28T10:00:15.547Z,37.09
2022-11-28T10:05:34.900Z,40.5
2022-11-28T10:10:53.930Z,38.7
2022-11-28T10:16:13.643Z,43.5
2022-11-28T10:21:32.941Z,46.5
2022-11-28T10:26:52.350Z,46.9
2022-11-28T10:32:12.303Z,43.7
2022-11-28T10:42:50.431Z,37.09
2022-11-28T10:48:37.542Z,43.8
2022-11-28T10:58:46.835Z,37.59
2022-11-28T11:09:25.724Z,27.9
2022-11-28T11:14:45.810Z,23.4
2022-11-28T11:25:24.173Z,11
2022-11-28T11:36:02.487Z,22.6
2022-11-28T11:41:21.628Z,20
2022-11-28T11:46:40.864Z,18.6
2022-11-28T11:52:00.462Z,23.7
2022-11-28T11:57:32.371Z,25.3
2022-11-28T12:07:57.063Z,23.3
2022-11-28T12:13:16.670Z,11.2
2022-11-28T12:23:54.943Z,6.5
2022-11-28T12:34:32.512Z,28.3
2022-11-28T12:39:51.435Z,28.6
2022-11-28T12:50:30.003Z,19.5
2022-11-28T12:55:49.660Z,11.9
2022-11-28T13:06:28.903Z,9.5
2022-11-28T13:11:48.416Z,15.8
2022-11-28T13:17:07.563Z,15.8
2022-11-28T13:22:26.863Z,15.3
2022-11-28T13:27:46.315Z,14.7
2022-11-28T13:33:05.833Z,11.1
2022-11-28T13:43:46.372Z,3.4
2022-11-28T13:49:15.873Z,1.4
2022-11-28T13:59:42.944Z,-4.3
2022-11-28T14:10:21.166Z,-8.89
2022-11-28T14:15:40.594Z,-12.4
2022-11-28T14:26:19.166Z,-15.3
2022-11-28T14:31:38.559Z,-16.79
2022-11-28T14:42:37.165Z,-20.29
2022-11-28T14:47:35.773Z,-21.2
2022-11-28T14:52:54.856Z,-22.1
2022-11-28T14:58:13.656Z,-23.8
2022-11-28T15:03:32.926Z,-24.7
2022-11-28T15:08:51.940Z,-24.9
2022-11-28T15:14:11.480Z,-24.8
2022-11-28T15:24:49.570Z,-23.8
2022-11-28T15:30:17.565Z,-24
2022-11-28T15:35:28.081Z,-24.2
2022-11-28T15:40:47.395Z,-24.5
2022-11-28T15:51:25.069Z,-23.8
2022-11-28T15:56:54.602Z,-25.5
2022-11-28T16:07:22.729Z,-24.3
2022-11-28T16:12:42.261Z,-23.8
2022-11-28T16:18:01.898Z,-24
2022-11-28T16:23:21.200Z,-23.7
2022-11-28T16:28:40.576Z,-23.8
2022-11-28T16:33:59.410Z,-23.5
2022-11-28T16:39:18.323Z,-24.2
2022-11-28T16:49:56.977Z,-23.8
2022-11-28T16:55:16.567Z,-23.8
2022-11-28T17:00:35.782Z,-24.4
2022-11-28T17:05:55.050Z,-25.1
2022-11-28T17:11:13.856Z,-24.1
2022-11-28T17:16:33.301Z,-23.6
2022-11-28T17:21:52.591Z,-23.7
2022-11-28T17:32:31.609Z,-24.2
2022-11-28T17:37:51.024Z,-23.8
2022-11-28T17:48:29.528Z,-23.7
2022-11-28T17:59:08.117Z,-27.5
2022-11-28T18:04:36.293Z,-23.9
2022-11-28T18:09:46.197Z,-24.3
2022-11-28T18:15:05.554Z,-23.6
2022-11-28T18:20:25.286Z,-28.1
2022-11-28T18:31:04.178Z,-24
2022-11-28T18:36:23.868Z,-25.9
2022-11-28T18:41:53.312Z,-23.6
2022-11-28T18:47:02.469Z,-24.2
2022-11-28T18:57:41.592Z,-23.7
2022-11-28T19:03:01.145Z,-23.8
2022-11-28T19:08:29.636Z,-24.2
2022-11-28T19:13:40.034Z,-24.2
2022-11-28T19:18:58.995Z,-23.9
2022-11-28T19:29:36.753Z,-24.3
2022-11-28T19:35:04.689Z,-23.7
2022-11-28T19:40:15.108Z,-24
2022-11-28T19:45:34.239Z,-23.5
2022-11-28T19:56:13.269Z,-24
2022-11-28T20:06:50.419Z,-24.5
2022-11-28T20:12:09.471Z,-23.8
2022-11-28T20:17:28.777Z,-24.7
2022-11-28T20:22:48.177Z,-27.7
2022-11-28T20:33:26.499Z,-23.9
2022-11-28T20:38:45.565Z,-24.4
2022-11-28T20:49:23.989Z,-24.6
2022-11-28T21:00:02.498Z,-23.6
2022-11-28T21:05:21.692Z,-24.7
2022-11-28T21:16:00.296Z,-23.9
2022-11-28T21:21:19.263Z,-24.3
2022-11-28T21:26:41.568Z,-24.6
2022-11-28T21:31:58.027Z,-23.9
2022-11-28T21:37:17.200Z,-23.7
2022-11-28T21:42:46.284Z,-26.5
2022-11-28T21:48:31.973Z,-23.8
2022-11-28T21:58:34.116Z,-23.8
2022-11-28T22:03:53.605Z,-24.3
2022-11-28T22:09:12.598Z,-24.6
2022-11-28T22:14:36.613Z,-24
2022-11-28T22:19:52.123Z,-23.9
2022-11-28T22:25:11.001Z,-27.7
2022-11-28T22:30:29.219Z,-24
2022-11-28T22:41:07.370Z,-23.9
2022-11-28T22:46:26.991Z,-23.9
2022-11-28T22:57:06.469Z,-26.2
2022-11-28T23:02:26.328Z,-23.6
2022-11-28T23:07:45.799Z,-23.8
2022-11-28T23:13:05.488Z,-24
2022-11-28T23:18:23.829Z,-23.8
2022-11-28T23:23:42.997Z,-23.9
2022-11-28T23:29:02.314Z,-24.1
2022-11-28T23:39:40.011Z,-24.1
2022-11-28T23:44:59.206Z,-23.9
2022-11-28T23:50:18.393Z,-23.9
2022-11-28T23:55:38.421Z,-24.1
